Time;durP1;ratioP1;P1;durP2;ratioP2;P2;SDS_P1;SDS_P2;PMS_P1;PMS_P2;Temp;Humidity;BMP_temperature;BMP_pressure;BME280_temperature;BME280_humidity;BME280_pressure;Samples;Min_cycle;Max_cycle;Signal;HPM_P1;HPM_P2
2022/02/12 00:01:02;;;;;;;37.58;11.63;;;;;;;1.67;69.57;102967.53;5093747;28;20048;-68
2022/02/12 00:03:29;;;;;;;35.45;11.30;;;;;;;1.61;69.58;102960.72;5088764;28;20484;-68
2022/02/12 00:05:56;;;;;;;33.45;10.48;;;;;;;1.69;68.60;102960.50;5073108;28;20464;-68
2022/02/12 00:08:22;;;;;;;29.77;11.05;;;;;;;1.68;69.20;102964.03;5051676;28;20136;-68
2022/02/12 00:10:49;;;;;;;29.02;10.93;;;;;;;1.61;69.02;102960.72;5073577;28;20492;-68
2022/02/12 00:13:16;;;;;;;43.88;11.27;;;;;;;1.52;69.54;102955.75;5074724;28;20374;-68
2022/02/12 00:15:43;;;;;;;35.22;11.80;;;;;;;1.54;68.96;102959.16;5066664;28;20139;-68
2022/02/12 00:18:10;;;;;;;41.13;12.10;;;;;;;1.49;69.91;102953.19;5075073;28;20044;-68
2022/02/12 00:20:37;;;;;;;36.10;11.85;;;;;;;1.48;69.30;102960.19;5098684;28;20040;-68
2022/02/12 00:23:05;;;;;;;34.42;11.73;;;;;;;1.45;69.28;102949.81;5072409;28;20037;-68
2022/02/12 00:25:32;;;;;;;37.80;11.93;;;;;;;1.44;69.54;102942.88;5073381;28;20040;-68
2022/02/12 00:28:00;;;;;;;32.20;11.35;;;;;;;1.43;69.76;102950.75;5074236;28;20122;-68
2022/02/12 00:30:28;;;;;;;38.55;11.07;;;;;;;1.45;69.58;102948.97;5087478;28;20727;-68
2022/02/12 00:32:55;;;;;;;33.90;12.00;;;;;;;1.34;69.90;102937.00;5072923;28;20048;-68
2022/02/12 00:35:22;;;;;;;35.72;11.80;;;;;;;1.31;70.32;102938.84;5089536;28;20135;-68
2022/02/12 00:37:49;;;;;;;31.52;11.52;;;;;;;1.25;71.15;102944.25;5089272;28;20037;-68
2022/02/12 00:40:16;;;;;;;38.03;11.93;;;;;;;1.27;71.09;102937.22;5072651;28;20051;-68
2022/02/12 00:42:43;;;;;;;33.63;11.52;;;;;;;1.24;70.73;102937.31;5039604;28;20047;-68
2022/02/12 00:45:10;;;;;;;37.95;12.73;;;;;;;1.25;71.36;102929.41;5052205;28;20041;-68
2022/02/12 00:47:37;;;;;;;42.15;12.65;;;;;;;1.24;71.01;102935.56;5070468;28;20135;-68
2022/02/12 00:50:06;;;;;;;33.97;11.82;;;;;;;1.21;70.92;102940.00;5089591;28;20400;-68
2022/02/12 00:52:33;;;;;;;33.72;11.80;;;;;;;1.15;71.49;102941.03;5071762;28;20040;-68
2022/02/12 00:55:00;;;;;;;36.88;12.43;;;;;;;1.09;71.62;102936.81;5056118;28;20055;-68
2022/02/12 00:57:27;;;;;;;32.05;12.15;;;;;;;1.00;72.17;102934.44;5089438;28;20066;-68
2022/02/12 00:59:54;;;;;;;33.83;12.00;;;;;;;1.08;72.39;102931.63;5056177;28;20053;-68
2022/02/12 01:02:20;;;;;;;40.03;12.32;;;;;;;1.04;71.99;102930.84;5046598;28;20044;-68
2022/02/12 01:04:47;;;;;;;36.42;12.32;;;;;;;1.00;72.37;102944.88;5070349;28;20389;-69
2022/02/12 01:07:14;;;;;;;42.75;12.70;;;;;;;1.04;72.98;102938.69;5073494;28;20188;-69
2022/02/12 01:09:41;;;;;;;39.33;12.40;;;;;;;1.01;73.15;102936.13;5055505;28;20049;-69
2022/02/12 01:12:08;;;;;;;42.10;13.30;;;;;;;1.03;72.84;102920.41;5055873;28;20044;-68
2022/02/12 01:14:35;;;;;;;37.35;12.07;;;;;;;1.06;72.31;102929.03;5072378;28;20056;-68
2022/02/12 01:17:03;;;;;;;39.25;12.20;;;;;;;1.02;72.78;102927.41;5073024;28;20082;-69
2022/02/12 01:19:30;;;;;;;27.83;11.10;;;;;;;1.05;72.46;102931.69;5054986;28;20044;-69
2022/02/12 01:21:56;;;;;;;37.38;11.52;;;;;;;1.06;72.88;102925.56;5072639;28;20052;-68
2022/02/12 01:24:23;;;;;;;40.60;12.23;;;;;;;1.09;73.39;102922.88;5071608;28;20045;-68
2022/02/12 01:26:51;;;;;;;38.30;11.55;;;;;;;1.04;73.02;102928.22;5038886;28;20408;-68
2022/02/12 01:29:19;;;;;;;32.63;11.43;;;;;;;1.06;73.14;102925.56;5072018;28;20041;-68
2022/02/12 01:31:45;;;;;;;34.92;11.93;;;;;;;1.02;72.46;102927.41;5071667;28;20044;-69
2022/02/12 01:34:12;;;;;;;35.25;11.25;;;;;;;1.03;72.39;102921.25;5053657;28;20048;-69
2022/02/12 01:36:39;;;;;;;33.50;12.07;;;;;;;0.91;73.45;102919.84;5071616;28;20056;-68
2022/02/12 01:39:06;;;;;;;30.85;11.32;;;;;;;0.88;72.87;102919.91;5053462;28;20057;-69
2022/02/12 01:41:33;;;;;;;35.30;11.20;;;;;;;0.85;73.48;102916.50;5073045;28;20454;-68
2022/02/12 01:44:10;;;;;;;38.22;11.95;;;;;;;0.89;73.85;102916.41;5071883;28;20037;-68
2022/02/12 01:46:37;;;;;;;35.80;10.65;;;;;;;0.93;73.42;102907.59;5075780;28;20048;-68
2022/02/12 01:49:05;;;;;;;33.53;11.70;;;;;;;0.92;73.37;102907.63;5072106;28;20056;-68
2022/02/12 01:51:32;;;;;;;34.72;10.82;;;;;;;0.91;73.21;102900.66;5054805;28;20052;-68
2022/02/12 01:53:59;;;;;;;30.60;11.00;;;;;;;0.90;73.49;102902.41;5072607;28;20396;-68
2022/02/12 01:56:28;;;;;;;33.58;10.13;;;;;;;0.91;73.82;102904.16;5062513;28;20519;-69
2022/02/12 01:58:55;;;;;;;34.22;10.63;;;;;;;0.87;73.55;102894.66;5054884;28;20102;-68
2022/02/12 02:01:22;;;;;;;35.63;10.65;;;;;;;0.86;73.58;102895.56;5054662;28;20554;-68
2022/02/12 02:03:49;;;;;;;31.95;10.13;;;;;;;0.87;72.96;102896.41;5036465;28;20111;-69
2022/02/12 02:06:16;;;;;;;35.97;10.85;;;;;;;0.83;73.69;102890.41;5071902;28;20040;-68
2022/02/12 02:08:43;;;;;;;36.40;10.95;;;;;;;0.85;73.53;102892.97;5071095;28;20420;-68
2022/02/12 02:11:10;;;;;;;33.08;9.77;;;;;;;0.82;73.41;102885.22;5088358;28;20393;-68
2022/02/12 02:13:37;;;;;;;30.35;11.38;;;;;;;0.79;73.75;102880.09;5055082;28;20504;-68
2022/02/12 02:16:11;;;;;;;28.15;10.23;;;;;;;0.79;74.04;102886.16;5070582;28;20043;-69
2022/02/12 02:18:40;;;;;;;31.85;10.15;;;;;;;0.73;74.54;102881.94;5065548;28;20152;-68
2022/02/12 02:21:08;;;;;;;32.20;9.77;;;;;;;0.69;74.44;102876.81;5091114;28;20052;-68
2022/02/12 02:23:36;;;;;;;35.90;10.60;;;;;;;0.72;73.83;102871.53;5068334;28;20040;-68
2022/02/12 02:26:04;;;;;;;35.65;10.25;;;;;;;0.65;74.29;102876.03;5071331;28;20056;-68
2022/02/12 02:28:31;;;;;;;30.77;9.75;;;;;;;0.69;73.75;102868.97;5071434;28;20496;-69
2022/02/12 02:30:59;;;;;;;28.80;9.35;;;;;;;0.61;74.10;102863.09;5037827;28;20575;-69
2022/02/12 02:33:27;;;;;;;27.15;9.57;;;;;;;0.63;73.97;102866.53;5070569;28;20051;-68
2022/02/12 02:35:53;;;;;;;38.60;9.80;;;;;;;0.62;74.64;102867.41;5054844;28;20123;-68
2022/02/12 02:38:23;;;;;;;34.90;9.90;;;;;;;0.66;74.16;102861.25;5054089;28;20055;-68
2022/02/12 02:40:53;;;;;;;32.50;10.20;;;;;;;0.48;74.53;102862.53;5054429;28;20060;-68
2022/02/12 02:43:20;;;;;;;36.80;9.80;;;;;;;0.54;74.82;102865.84;5069631;28;20048;-68
2022/02/12 02:45:48;;;;;;;32.72;9.38;;;;;;;0.61;74.70;102866.56;5086423;28;20041;-68
2022/02/12 02:48:17;;;;;;;33.75;9.80;;;;;;;0.54;74.90;102865.84;5074445;28;20046;-68
2022/02/12 02:56:18;;;;;;;29.25;9.20;;;;;;;0.42;75.76;102844.41;5075926;28;20044;-68
2022/02/12 02:58:47;;;;;;;32.45;9.43;;;;;;;0.46;75.10;102854.75;5058156;28;20515;-69
2022/02/12 03:01:19;;;;;;;28.92;9.63;;;;;;;0.52;74.95;102848.50;5074247;28;20050;-69
2022/02/12 03:03:48;;;;;;;34.05;9.90;;;;;;;0.46;74.68;102853.91;5074568;28;20066;-69
2022/02/12 03:06:16;;;;;;;32.83;9.35;;;;;;;0.45;74.65;102847.78;5074319;28;20041;-69
2022/02/12 03:08:44;;;;;;;25.58;9.02;;;;;;;0.49;74.69;102844.22;5075265;28;20044;-69
2022/02/12 03:11:12;;;;;;;27.80;9.02;;;;;;;0.42;75.28;102841.78;5074509;28;20488;-69
2022/02/12 03:13:41;;;;;;;35.00;9.07;;;;;;;0.42;75.21;102842.66;5075600;28;20044;-68
2022/02/12 03:16:09;;;;;;;30.92;8.82;;;;;;;0.36;75.04;102833.22;5074400;28;20404;-68
2022/02/12 03:18:37;;;;;;;30.58;9.18;;;;;;;0.38;75.23;102833.16;5075444;28;20045;-69
2022/02/12 03:21:05;;;;;;;23.55;9.10;;;;;;;0.34;75.48;102837.59;5074051;28;20043;-69
2022/02/12 03:23:32;;;;;;;28.10;8.60;;;;;;;0.33;74.93;102828.06;5074874;28;20037;-69
2022/02/12 03:25:59;;;;;;;25.55;8.90;;;;;;;0.36;74.63;102824.50;5074897;28;20041;-68
2022/02/12 03:28:26;;;;;;;30.38;8.63;;;;;;;0.44;74.60;102824.31;5074238;28;20055;-69
2022/02/12 03:30:52;;;;;;;32.65;9.05;;;;;;;0.33;74.96;102816.78;5073759;28;20048;-68
2022/02/12 03:33:20;;;;;;;29.13;8.60;;;;;;;0.33;74.77;102822.84;5073384;28;20045;-69
2022/02/12 03:35:51;;;;;;;36.70;8.65;;;;;;;0.26;75.64;102823.88;5057303;28;20109;-68
2022/02/12 03:38:21;;;;;;;24.33;8.15;;;;;;;0.39;74.87;102824.44;5074104;28;20047;-68
2022/02/12 03:40:50;;;;;;;33.28;9.10;;;;;;;0.30;74.67;102817.69;5074640;28;20564;-69
2022/02/12 03:43:17;;;;;;;35.88;8.75;;;;;;;0.30;75.41;102822.91;5074989;28;20369;-69
2022/02/12 03:45:44;;;;;;;33.38;8.90;;;;;;;0.19;75.55;102825.78;5073459;28;20045;-68
2022/02/12 03:48:12;;;;;;;30.08;8.45;;;;;;;0.29;74.55;102818.59;5073933;28;20492;-68
2022/02/12 03:50:39;;;;;;;24.00;8.90;;;;;;;0.29;74.49;102815.09;5074659;28;20503;-69
2022/02/12 03:53:07;;;;;;;31.38;8.43;;;;;;;0.18;75.17;102815.38;5074844;28;20036;-69
2022/02/12 03:55:37;;;;;;;32.03;8.00;;;;;;;0.23;75.41;102807.44;5073263;28;20044;-68
2022/02/12 03:58:05;;;;;;;35.80;10.02;;;;;;;0.12;75.12;102803.31;5072805;28;20135;-69
2022/02/12 04:00:34;;;;;;;31.00;8.85;;;;;;;0.13;75.82;102814.63;5074632;28;20070;-68
2022/02/12 04:03:01;;;;;;;22.20;7.82;;;;;;;0.17;75.82;102811.06;5056871;28;20519;-69
2022/02/12 04:05:28;;;;;;;30.67;8.68;;;;;;;0.19;75.91;102806.66;5073285;28;20412;-69
2022/02/12 04:07:55;;;;;;;30.83;7.55;;;;;;;0.13;75.92;102804.19;5076311;28;20040;-69
2022/02/12 04:10:22;;;;;;;22.63;9.32;;;;;;;0.12;75.54;102803.31;5094447;28;20042;-68
2022/02/12 04:12:51;;;;;;;30.75;8.35;;;;;;;0.15;75.53;102797.19;5093407;28;20553;-69
2022/02/12 04:15:19;;;;;;;30.10;7.60;;;;;;;0.13;75.54;102794.59;5094741;28;20040;-68
2022/02/12 04:17:47;;;;;;;23.40;7.38;;;;;;;0.14;75.76;102787.63;5076506;28;20040;-69
2022/02/12 04:20:17;;;;;;;23.67;8.65;;;;;;;0.12;75.52;102786.81;5080131;28;20050;-69
2022/02/12 04:22:44;;;;;;;29.30;8.30;;;;;;;0.08;75.45;102786.03;5093824;28;20044;-69
2022/02/12 04:25:14;;;;;;;26.60;7.47;;;;;;;0.12;75.40;102781.59;5074937;28;20041;-69
2022/02/12 04:27:41;;;;;;;30.67;7.78;;;;;;;0.03;75.97;102781.81;5072985;28;20048;-68
2022/02/12 04:30:09;;;;;;;25.23;7.32;;;;;;;0.05;75.67;102780.88;5072713;28;20045;-69
2022/02/12 04:32:37;;;;;;;32.53;7.22;;;;;;;0.05;75.92;102783.47;5073971;28;20052;-69
2022/02/12 04:35:06;;;;;;;27.77;8.15;;;;;;;0.00;75.74;102777.53;5070915;28;20086;-69
2022/02/12 04:37:34;;;;;;;30.13;7.70;;;;;;;-0.01;75.84;102775.78;5074052;28;20041;-68
2022/02/12 04:40:01;;;;;;;31.67;7.90;;;;;;;0.01;75.07;102771.41;5072320;28;20501;-69
2022/02/12 04:42:28;;;;;;;28.55;7.85;;;;;;;-0.03;75.38;102765.41;5056170;28;20048;-69
2022/02/12 04:44:55;;;;;;;30.35;7.88;;;;;;;-0.02;75.77;102761.91;5073535;28;20036;-69
2022/02/12 04:47:22;;;;;;;26.17;7.70;;;;;;;0.05;75.61;102756.53;5073660;28;20044;-69
2022/02/12 04:49:50;;;;;;;28.33;8.43;;;;;;;-0.06;74.88;102754.16;5063290;28;20507;-69
2022/02/12 04:52:20;;;;;;;32.22;7.78;;;;;;;-0.04;75.16;102763.69;5089196;28;20114;-69
2022/02/12 04:54:47;;;;;;;23.65;8.32;;;;;;;-0.02;74.96;102768.84;5055786;28;20052;-68
2022/02/12 04:57:14;;;;;;;27.65;8.23;;;;;;;-0.02;74.83;102767.13;5073589;28;20040;-69
2022/02/12 04:59:41;;;;;;;36.67;8.77;;;;;;;0.01;75.49;102773.16;5053515;28;20519;-69
2022/02/12 05:02:08;;;;;;;21.25;7.85;;;;;;;-0.01;75.38;102763.59;5052292;28;20041;-69
2022/02/12 05:04:36;;;;;;;26.58;7.90;;;;;;;-0.07;75.68;102768.13;5053296;28;20132;-68
2022/02/12 05:07:03;;;;;;;24.48;7.95;;;;;;;-0.05;75.98;102774.16;5062511;28;20036;-69
2022/02/12 05:09:34;;;;;;;30.90;8.07;;;;;;;-0.02;75.62;102767.13;5088534;28;20050;-69
2022/02/12 05:12:03;;;;;;;20.85;7.78;;;;;;;-0.05;75.87;102767.19;5073559;28;20058;-69
2022/02/12 05:14:31;;;;;;;23.85;7.57;;;;;;;-0.06;76.60;102770.69;5073160;28;20048;-69
2022/02/12 05:16:59;;;;;;;24.65;8.13;;;;;;;-0.09;76.06;102762.94;5089051;28;20045;-69
2022/02/12 05:19:26;;;;;;;26.55;8.00;;;;;;;-0.03;76.64;102752.34;5088832;28;20484;-69
2022/02/12 05:21:54;;;;;;;34.65;7.85;;;;;;;-0.16;77.19;102752.66;5073011;28;20546;-69
2022/02/12 05:24:21;;;;;;;22.10;7.63;;;;;;;-0.09;76.56;102755.13;5055327;28;20067;-68
2022/02/12 05:26:48;;;;;;;28.45;8.20;;;;;;;-0.10;76.93;102753.38;5073066;28;20503;-69
2022/02/12 05:29:16;;;;;;;30.65;7.95;;;;;;;-0.04;76.70;102754.97;5039461;28;20048;-69
2022/02/12 05:31:42;;;;;;;25.70;7.80;;;;;;;-0.05;76.81;102745.47;5071728;28;20037;-68
2022/02/12 05:34:11;;;;;;;26.48;7.70;;;;;;;-0.11;76.32;102748.19;5055618;28;20039;-69
2022/02/12 05:36:37;;;;;;;34.20;7.75;;;;;;;-0.10;76.56;102742.94;5070051;28;20492;-69
2022/02/12 05:39:05;;;;;;;26.52;8.05;;;;;;;-0.09;76.80;102728.13;5071774;28;20052;-69
2022/02/12 05:41:32;;;;;;;29.77;7.97;;;;;;;-0.12;76.88;102728.22;5055566;28;20075;-68
2022/02/12 05:43:58;;;;;;;27.67;7.85;;;;;;;-0.07;76.42;102732.44;5071678;28;20047;-68
2022/02/12 05:46:25;;;;;;;28.33;7.70;;;;;;;-0.05;76.42;102729.81;5055089;28;20056;-68
2022/02/12 05:48:52;;;;;;;32.30;7.57;;;;;;;-0.18;76.67;102724.03;5071806;28;20132;-69
2022/02/12 05:51:21;;;;;;;21.20;7.32;;;;;;;-0.18;77.70;102710.97;5088507;28;20097;-70
2022/02/12 05:53:48;;;;;;;33.38;8.10;;;;;;;-0.15;77.06;102713.50;5071500;28;20538;-68
2022/02/12 05:56:15;;;;;;;26.67;7.90;;;;;;;-0.09;76.96;102709.88;5088557;28;20040;-69
2022/02/12 05:58:42;;;;;;;29.58;7.32;;;;;;;-0.11;77.09;102709.06;5071503;28;20067;-70
2022/02/12 06:01:09;;;;;;;22.52;8.20;;;;;;;-0.13;77.52;102703.03;5055038;28;20052;-68
2022/02/12 06:03:35;;;;;;;24.77;8.18;;;;;;;-0.11;77.75;102703.84;5071563;28;20047;-68
2022/02/12 06:06:02;;;;;;;28.50;7.82;;;;;;;-0.16;77.23;102696.13;5065119;28;20519;-68
2022/02/12 06:08:29;;;;;;;35.65;7.70;;;;;;;-0.16;77.12;102696.13;5069662;28;20045;-68
2022/02/12 06:10:56;;;;;;;24.13;6.97;;;;;;;-0.18;77.21;102699.66;5072172;28;20052;-68
2022/02/12 06:13:22;;;;;;;24.98;6.85;;;;;;;-0.20;77.10;102703.19;5054991;28;20497;-68
2022/02/12 06:15:49;;;;;;;30.23;7.82;;;;;;;-0.15;77.34;102707.44;5071498;28;20488;-68
2022/02/12 06:18:16;;;;;;;23.63;8.10;;;;;;;-0.09;77.22;102721.19;5072696;28;20119;-68
2022/02/12 06:20:43;;;;;;;24.92;7.03;;;;;;;-0.10;76.77;102708.19;5075879;28;20047;-68
2022/02/12 06:23:09;;;;;;;26.63;7.45;;;;;;;-0.09;76.68;102707.25;5093427;28;20054;-68
2022/02/12 06:25:37;;;;;;;20.20;7.20;;;;;;;-0.05;76.97;102707.16;5068124;28;20400;-69
2022/02/12 06:28:04;;;;;;;22.80;6.78;;;;;;;-0.16;76.88;102706.56;5085602;28;20036;-67
2022/02/12 06:30:31;;;;;;;24.27;7.28;;;;;;;-0.18;76.95;102718.81;5076023;28;20068;-68
2022/02/12 06:32:59;;;;;;;21.73;6.70;;;;;;;-0.13;77.06;102710.84;5076063;28;20377;-68
2022/02/12 06:35:27;;;;;;;26.60;7.32;;;;;;;-0.15;76.79;102699.59;5073084;28;20048;-68
2022/02/12 06:37:56;;;;;;;19.85;6.82;;;;;;;-0.18;77.12;102695.31;5092123;28;20071;-68
2022/02/12 06:40:23;;;;;;;24.45;6.75;;;;;;;-0.20;76.68;102697.09;5075651;28;20554;-68
2022/02/12 06:42:50;;;;;;;27.75;6.88;;;;;;;-0.15;76.58;102697.00;5075833;28;20044;-68
2022/02/12 06:45:17;;;;;;;25.58;7.65;;;;;;;-0.06;75.87;102697.63;5075901;28;20045;-68
2022/02/12 06:47:44;;;;;;;29.85;7.60;;;;;;;-0.10;77.07;102693.38;5091347;28;20048;-68
2022/02/12 06:50:11;;;;;;;21.80;6.40;;;;;;;-0.04;76.22;102682.81;5076055;28;20047;-68
2022/02/12 06:52:39;;;;;;;26.85;7.63;;;;;;;-0.15;75.97;102681.34;5074756;28;20106;-68
2022/02/12 06:55:07;;;;;;;20.60;7.05;;;;;;;-0.13;76.16;102680.38;5075688;28;20548;-68
2022/02/12 06:57:34;;;;;;;26.95;7.07;;;;;;;-0.15;76.34;102678.72;5075990;28;20450;-68
2022/02/12 07:00:01;;;;;;;24.02;5.90;;;;;;;-0.13;76.72;102687.38;5074568;28;20040;-68
2022/02/12 07:02:28;;;;;;;22.50;7.00;;;;;;;-0.12;76.54;102686.50;5075648;28;20048;-69
2022/02/12 07:04:57;;;;;;;20.88;7.40;;;;;;;0.06;76.13;102686.03;5075569;28;20127;-69
2022/02/12 07:07:24;;;;;;;29.25;6.82;;;;;;;-0.02;75.95;102678.41;5073734;28;20041;-68
2022/02/12 07:09:51;;;;;;;26.65;7.18;;;;;;;-0.01;76.21;102687.06;5074459;28;20049;-68
2022/02/12 07:12:17;;;;;;;25.85;7.18;;;;;;;0.04;76.06;102680.00;5058155;28;20047;-69
2022/02/12 07:14:44;;;;;;;26.90;7.32;;;;;;;-0.01;76.44;102674.88;5074318;28;20043;-67
2022/02/12 07:17:14;;;;;;;27.95;6.85;;;;;;;-0.05;75.79;102680.22;5057723;28;20040;-69
2022/02/12 07:19:41;;;;;;;27.30;8.20;;;;;;;0.05;76.35;102686.06;5079466;28;20047;-70
2022/02/12 07:22:08;;;;;;;30.27;6.88;;;;;;;0.21;75.50;102682.16;5094500;28;20159;-68
2022/02/12 07:24:34;;;;;;;24.02;6.47;;;;;;;0.18;75.69;102677.00;5093386;28;20036;-67
2022/02/12 07:27:01;;;;;;;23.67;7.22;;;;;;;0.11;76.27;102684.16;5097854;28;20139;-68
2022/02/12 07:29:28;;;;;;;25.83;7.18;;;;;;;0.19;75.24;102671.75;5095493;28;20084;-67
2022/02/12 07:31:55;;;;;;;22.98;7.32;;;;;;;0.20;75.47;102670.03;5095506;28;20048;-69
2022/02/12 07:34:23;;;;;;;23.15;6.55;;;;;;;0.28;75.61;102675.03;5108940;28;20503;-68
2022/02/12 07:36:49;;;;;;;26.23;8.13;;;;;;;0.23;74.96;102664.72;5077522;28;20044;-67
2022/02/12 07:39:16;;;;;;;27.77;7.30;;;;;;;0.29;75.80;102672.41;5076844;28;20048;-67
2022/02/12 07:41:43;;;;;;;19.83;6.63;;;;;;;0.30;74.51;102674.09;5094042;28;20039;-67
2022/02/12 07:44:10;;;;;;;22.15;6.75;;;;;;;0.40;75.29;102677.34;5093835;28;20506;-67
2022/02/12 07:46:37;;;;;;;26.55;6.53;;;;;;;0.41;75.32;102665.13;5077098;28;20086;-67
2022/02/12 07:49:04;;;;;;;24.67;7.15;;;;;;;0.39;75.36;102667.78;5085012;28;20119;-67
2022/02/12 07:51:34;;;;;;;31.98;6.65;;;;;;;0.50;74.78;102672.72;5073581;28;20040;-67
2022/02/12 07:54:00;;;;;;;27.10;7.15;;;;;;;0.44;74.59;102668.50;5074666;28;20382;-68
2022/02/12 07:56:28;;;;;;;21.63;6.72;;;;;;;0.54;74.54;102662.13;5074648;28;20040;-68
2022/02/12 07:58:54;;;;;;;28.02;7.50;;;;;;;0.55;75.09;102663.84;5056726;28;20500;-67
2022/02/12 08:01:21;;;;;;;16.98;6.55;;;;;;;0.64;74.81;102662.75;5073210;28;20456;-68
2022/02/12 08:03:48;;;;;;;26.92;7.30;;;;;;;0.68;74.26;102664.38;5073369;28;20098;-68
2022/02/12 08:09:01;;;;;;;22.33;7.15;;;;;;;0.86;73.81;102660.38;5073319;28;20064;-68
2022/02/12 08:11:35;;;;;;;22.98;7.95;;;;;;;0.85;73.65;102663.03;5074213;28;20048;-68
2022/02/12 08:14:01;;;;;;;25.95;7.03;;;;;;;0.90;73.22;102654.16;5090148;28;20523;-68
2022/02/12 08:16:29;;;;;;;34.67;7.78;;;;;;;0.89;73.62;102664.66;5073001;28;20044;-68
2022/02/12 08:18:55;;;;;;;29.02;7.22;;;;;;;0.86;73.57;102655.16;5074288;28;20052;-68
2022/02/12 08:21:22;;;;;;;29.70;8.23;;;;;;;0.83;74.51;102650.00;5070800;28;20154;-68
2022/02/12 08:23:49;;;;;;;26.90;7.15;;;;;;;0.91;73.13;102648.03;5073098;28;20560;-68
2022/02/12 08:26:16;;;;;;;23.38;7.43;;;;;;;0.90;73.08;102648.06;5072057;28;20056;-68
2022/02/12 08:28:43;;;;;;;19.13;6.88;;;;;;;0.87;73.47;102650.78;5073745;28;20501;-68
2022/02/12 08:31:11;;;;;;;24.23;6.82;;;;;;;1.07;72.93;102642.34;5053687;28;20041;-68
2022/02/12 08:33:37;;;;;;;26.08;7.78;;;;;;;1.19;73.13;102641.13;5053971;28;20041;-68
2022/02/12 08:36:04;;;;;;;22.08;7.60;;;;;;;1.29;72.71;102639.94;5035424;28;20037;-69
2022/02/12 08:38:31;;;;;;;26.30;7.45;;;;;;;1.25;72.78;102646.16;5044605;28;20036;-68
2022/02/12 08:40:58;;;;;;;22.75;7.38;;;;;;;1.39;72.09;102648.38;5088734;28;20056;-68
2022/02/12 08:43:25;;;;;;;22.55;7.75;;;;;;;1.43;72.09;102637.75;5056123;28;20044;-68
2022/02/12 08:45:53;;;;;;;20.27;6.72;;;;;;;1.34;71.55;102638.03;5088605;28;20040;-68
2022/02/12 08:48:20;;;;;;;23.50;7.00;;;;;;;1.44;71.31;102629.00;5057632;28;20055;-68
2022/02/12 08:50:47;;;;;;;25.95;7.13;;;;;;;1.65;71.34;102632.66;5072501;28;20047;-68
2022/02/12 08:53:13;;;;;;;18.58;7.15;;;;;;;1.65;70.92;102629.22;5055962;28;20131;-68
2022/02/12 08:55:40;;;;;;;35.47;7.43;;;;;;;1.66;71.22;102626.53;5072436;28;20048;-68
2022/02/12 08:58:10;;;;;;;29.33;7.93;;;;;;;1.72;71.00;102618.47;5073432;28;20044;-68
2022/02/12 09:00:36;;;;;;;23.88;6.70;;;;;;;1.85;70.81;102618.94;5072231;28;20446;-68
2022/02/12 09:03:09;;;;;;;27.80;7.15;;;;;;;1.77;70.45;102620.13;5073326;28;20040;-68
2022/02/12 09:05:36;;;;;;;24.65;7.97;;;;;;;1.88;70.89;102624.06;5073220;28;20078;-68
2022/02/12 09:08:03;;;;;;;25.75;7.35;;;;;;;2.04;70.05;102616.56;5071630;28;20518;-68
2022/02/12 09:10:30;;;;;;;25.35;6.80;;;;;;;2.08;70.64;102622.53;5073233;28;20052;-68
2022/02/12 09:12:57;;;;;;;23.42;7.60;;;;;;;2.18;70.70;102620.44;5073096;28;20522;-68
2022/02/12 09:15:24;;;;;;;27.02;7.25;;;;;;;2.27;69.80;102625.34;5073512;28;20041;-68
2022/02/12 09:17:51;;;;;;;25.90;6.82;;;;;;;2.32;69.25;102612.13;5073157;28;20047;-68
2022/02/12 09:20:18;;;;;;;27.23;7.47;;;;;;;2.41;69.47;102612.63;5072329;28;20045;-69
2022/02/12 09:22:45;;;;;;;30.02;7.35;;;;;;;2.21;69.84;102609.88;5055225;28;20048;-69
2022/02/12 09:25:12;;;;;;;23.85;6.40;;;;;;;2.28;69.63;102603.50;5072542;28;20033;-69
2022/02/12 09:27:39;;;;;;;28.65;7.65;;;;;;;2.30;68.78;102599.91;5071990;28;20128;-68
2022/02/12 09:30:07;;;;;;;29.10;7.13;;;;;;;2.49;69.08;102599.25;5046469;28;20049;-68
2022/02/12 09:32:34;;;;;;;24.25;6.90;;;;;;;2.40;68.78;102595.22;5035362;28;20447;-68
2022/02/12 09:35:01;;;;;;;27.70;7.88;;;;;;;2.48;69.05;102589.69;5049995;28;20036;-68
2022/02/12 09:37:28;;;;;;;26.27;7.07;;;;;;;2.72;68.49;102598.41;5051968;28;20049;-69
2022/02/12 09:39:55;;;;;;;32.25;8.25;;;;;;;2.76;68.83;102589.50;5077931;28;20055;-69
2022/02/12 09:42:22;;;;;;;31.40;7.40;;;;;;;2.80;68.63;102590.25;5075384;28;20043;-68
2022/02/12 09:44:49;;;;;;;27.00;7.57;;;;;;;2.81;67.93;102592.81;5077084;28;20040;-68
2022/02/12 09:47:49;;;;;;;17.90;6.63;;;;;;;2.95;67.70;102596.66;5075765;28;20038;-68
2022/02/12 09:50:18;;;;;;;21.80;7.32;;;;;;;2.94;67.77;102587.94;5057881;28;20048;-69
2022/02/12 09:52:49;;;;;;;27.52;7.25;;;;;;;3.16;67.35;102580.09;5038806;28;20045;-69
2022/02/12 09:55:17;;;;;;;27.17;7.05;;;;;;;3.26;65.95;102573.56;5055188;28;20048;-68
2022/02/12 09:57:43;;;;;;;26.77;7.63;;;;;;;3.38;66.46;102573.97;5075341;28;20389;-68
2022/02/12 10:00:14;;;;;;;31.88;8.00;;;;;;;3.31;66.13;102570.78;5075767;28;20141;-68
2022/02/12 10:02:41;;;;;;;22.38;6.35;;;;;;;3.43;66.12;102575.50;5075607;28;20075;-69
2022/02/12 10:10:40;;;;;;;24.63;6.80;;;;;;;3.77;65.00;102557.50;5124099;27;20383;-68
2022/02/12 10:15:56;;;;;;;27.75;6.80;;;;;;;3.83;64.77;102550.22;5131436;27;20390;-68
2022/02/12 10:18:26;;;;;;;26.88;7.80;;;;;;;3.90;64.84;102544.72;5131319;27;20512;-68
2022/02/12 10:20:55;;;;;;;21.63;6.60;;;;;;;3.73;65.16;102550.66;5126285;27;21073;-68
2022/02/12 10:23:27;;;;;;;30.13;7.68;;;;;;;3.80;65.25;102537.22;5115337;27;20403;-68
2022/02/12 10:28:42;;;;;;;25.52;7.15;;;;;;;3.73;64.88;102534.91;5072241;28;20387;-68
2022/02/12 10:31:11;;;;;;;26.92;7.53;;;;;;;3.71;65.00;102528.88;5052606;28;20059;-68
2022/02/12 10:33:41;;;;;;;22.15;6.60;;;;;;;3.92;64.14;102527.94;5050566;28;20094;-68
2022/02/12 10:36:14;;;;;;;23.45;7.18;;;;;;;4.04;63.75;102523.94;5070290;28;20037;-69
2022/02/12 10:38:47;;;;;;;32.03;7.93;;;;;;;4.19;64.02;102523.25;5052695;28;20071;-68
2022/02/12 10:41:19;;;;;;;29.85;8.10;;;;;;;4.30;64.46;102519.28;5070128;28;20056;-68
2022/02/12 10:43:49;;;;;;;21.45;7.28;;;;;;;4.40;63.87;102504.78;5060629;28;20037;-67
2022/02/12 10:46:17;;;;;;;27.40;7.88;;;;;;;4.42;64.20;102509.06;5048699;28;20045;-68
2022/02/12 10:48:44;;;;;;;30.67;7.00;;;;;;;4.39;62.34;102498.69;5049697;28;20060;-68
2022/02/12 10:51:15;;;;;;;23.63;7.20;;;;;;;4.71;62.81;102503.38;5068518;28;20040;-67
2022/02/12 10:54:02;;;;;;;28.10;7.37;;;;;;;4.62;62.37;102491.53;5069720;28;20072;-68
2022/02/12 10:56:50;;;;;;;24.52;7.63;;;;;;;4.91;62.75;102491.88;5069615;28;20282;-67
2022/02/12 10:59:20;;;;;;;20.88;6.50;;;;;;;4.90;60.41;102488.41;5069590;28;20049;-68
2022/02/12 11:01:47;;;;;;;38.95;12.60;;;;;;;5.16;61.15;102481.88;5069840;28;20630;-68
2022/02/12 11:04:15;;;;;;;24.95;8.38;;;;;;;5.25;60.44;102474.44;5068520;28;20045;-68
2022/02/12 11:06:46;;;;;;;22.23;7.07;;;;;;;5.27;59.60;102472.59;5065042;28;20094;-68
2022/02/12 11:09:14;;;;;;;26.92;7.05;;;;;;;5.61;58.64;102468.25;5055049;28;20976;-68
2022/02/12 11:11:42;;;;;;;24.05;6.93;;;;;;;5.75;58.62;102463.97;5036348;28;20497;-67
2022/02/12 11:14:09;;;;;;;25.52;6.88;;;;;;;6.29;56.72;102462.88;5104501;28;20066;-67
2022/02/12 11:16:36;;;;;;;24.75;8.15;;;;;;;7.69;52.82;102450.41;5082157;28;20106;-68
2022/02/12 11:19:04;;;;;;;23.35;7.13;;;;;;;9.70;47.36;102446.22;5067814;28;20086;-68
2022/02/12 11:21:33;;;;;;;19.10;6.32;;;;;;;12.15;42.08;102438.66;5040024;28;20048;-66
2022/02/12 11:24:01;;;;;;;18.90;6.50;;;;;;;13.86;36.53;102442.22;5051240;28;20044;-67
2022/02/12 11:26:39;;;;;;;24.17;6.63;;;;;;;14.74;33.32;102429.94;5067110;28;20064;-66
2022/02/12 11:32:10;;;;;;;29.00;6.50;;;;;;;16.90;29.63;102412.84;5090543;27;20853;-67
2022/02/12 11:34:53;;;;;;;16.88;5.80;;;;;;;16.84;29.34;102410.78;5089308;28;20133;-68
2022/02/12 11:37:19;;;;;;;20.60;6.28;;;;;;;18.25;26.17;102408.72;5078000;28;20040;-67
2022/02/12 11:40:14;;;;;;;24.48;6.55;;;;;;;18.19;26.65;102407.53;5088756;28;20044;-67
2022/02/12 11:42:46;;;;;;;24.45;6.00;;;;;;;18.99;25.33;102395.31;5088759;28;20051;-68
2022/02/12 11:45:34;;;;;;;26.08;5.95;;;;;;;19.70;24.43;102390.09;5090235;28;20044;-67
2022/02/12 11:51:05;;;;;;;20.60;5.38;;;;;;;19.75;23.30;102391.31;5131235;27;20371;-67